Time;durP1;ratioP1;P1;durP2;ratioP2;P2;SDS_P1;SDS_P2;PMS_P1;PMS_P2;Temp;Humidity;BMP_temperature;BMP_pressure;BME280_temperature;BME280_humidity;BME280_pressure;Samples;Min_cycle;Max_cycle;Signal;HPM_P1;HPM_P2
2023/02/26 00:01:41;;;;;;;9.23;4.97;;;-2.20;98.00;;;;;;5019872;28;20026;-67
2023/02/26 00:04:09;;;;;;;9.85;5.57;;;-2.10;98.00;;;;;;5030477;28;20429;-67
2023/02/26 00:06:37;;;;;;;7.90;3.97;;;-2.10;98.00;;;;;;5030536;28;20080;-67
2023/02/26 00:09:07;;;;;;;9.77;4.85;;;-2.10;98.00;;;;;;5032803;28;20033;-68
2023/02/26 00:11:33;;;;;;;11.88;5.03;;;-2.10;98.00;;;;;;5028684;28;20448;-67
2023/02/26 00:13:59;;;;;;;8.48;4.50;;;-2.00;98.00;;;;;;5037252;28;20052;-67
2023/02/26 00:16:33;;;;;;;9.38;4.30;;;-2.10;98.00;;;;;;5032645;28;20025;-66
2023/02/26 00:19:02;;;;;;;9.43;4.22;;;-2.00;98.00;;;;;;5027706;28;20827;-66
2023/02/26 00:21:28;;;;;;;7.03;4.20;;;-2.10;98.00;;;;;;5028801;28;20040;-67
2023/02/26 00:23:54;;;;;;;13.57;5.78;;;-2.10;98.00;;;;;;5027900;28;20030;-68
2023/02/26 00:26:22;;;;;;;7.93;4.68;;;-2.30;98.00;;;;;;5018844;28;20046;-67
2023/02/26 00:28:48;;;;;;;13.43;5.53;;;-2.40;98.00;;;;;;5027728;28;20371;-68
2023/02/26 00:31:15;;;;;;;8.25;4.65;;;-2.40;98.00;;;;;;5033794;28;20492;-67
2023/02/26 00:33:41;;;;;;;10.77;4.25;;;-2.40;98.00;;;;;;5023941;28;20030;-67
2023/02/26 00:36:19;;;;;;;8.82;3.80;;;-2.40;98.00;;;;;;5022460;28;20037;-67
2023/02/26 00:39:00;;;;;;;8.05;4.53;;;-2.50;97.90;;;;;;5028745;28;20053;-66
2023/02/26 00:41:27;;;;;;;11.85;6.53;;;-2.40;98.00;;;;;;5022977;28;20037;-68
2023/02/26 00:43:53;;;;;;;10.73;5.30;;;-2.40;97.70;;;;;;5037557;28;20032;-67
2023/02/26 00:46:32;;;;;;;8.05;4.30;;;-2.30;98.00;;;;;;5033124;28;20143;-67
2023/02/26 00:49:27;;;;;;;10.20;4.30;;;-2.40;98.00;;;;;;5035157;28;20116;-67
2023/02/26 00:51:57;;;;;;;11.20;4.80;;;-2.40;98.00;;;;;;5032538;28;21723;-67
2023/02/26 00:54:28;;;;;;;11.43;4.80;;;-2.30;98.00;;;;;;5026450;28;20061;-67
2023/02/26 00:56:55;;;;;;;7.32;4.20;;;-2.30;98.00;;;;;;5029651;28;20029;-68
2023/02/26 00:59:21;;;;;;;8.38;4.30;;;-2.30;98.00;;;;;;5033674;28;20037;-66
2023/02/26 01:01:48;;;;;;;10.85;5.00;;;-2.30;98.00;;;;;;5024007;28;20030;-67
2023/02/26 01:04:16;;;;;;;11.45;4.55;;;-2.30;98.00;;;;;;5036245;28;20032;-67
2023/02/26 01:06:45;;;;;;;11.27;4.53;;;-2.30;98.00;;;;;;5035547;28;20116;-66
2023/02/26 01:09:14;;;;;;;7.55;4.38;;;-2.30;98.00;;;;;;5028107;28;20426;-66
2023/02/26 01:11:41;;;;;;;11.60;4.60;;;-2.30;98.00;;;;;;5035677;28;20398;-66
2023/02/26 01:14:07;;;;;;;8.30;4.80;;;-2.20;98.00;;;;;;5035443;28;20053;-66
2023/02/26 01:17:08;;;;;;;8.68;5.07;;;-2.20;98.00;;;;;;5023056;28;20112;-67
2023/02/26 01:19:54;;;;;;;11.20;4.65;;;-2.10;98.00;;;;;;5012730;28;20045;-67
2023/02/26 01:22:27;;;;;;;12.02;4.88;;;-2.10;98.00;;;;;;5029719;28;20120;-66
2023/02/26 01:25:02;;;;;;;9.10;5.00;;;-2.10;98.00;;;;;;5032979;28;20072;-67
2023/02/26 01:27:28;;;;;;;8.50;4.32;;;-2.10;98.00;;;;;;5038496;28;20578;-66
2023/02/26 01:29:54;;;;;;;9.90;4.38;;;-2.10;98.00;;;;;;5033220;28;20032;-66
2023/02/26 01:32:42;;;;;;;7.82;4.28;;;-2.10;98.00;;;;;;5028668;28;20128;-66
2023/02/26 01:35:12;;;;;;;8.82;4.90;;;-2.00;98.00;;;;;;5032232;28;20029;-67
2023/02/26 01:37:49;;;;;;;10.77;4.70;;;-2.10;98.00;;;;;;5025539;28;20049;-66
2023/02/26 01:40:54;;;;;;;10.93;5.20;;;-2.20;98.00;;;;;;5027383;28;20034;-65
2023/02/26 01:43:36;;;;;;;11.68;4.05;;;-2.20;98.00;;;;;;5027181;28;20358;-67
2023/02/26 01:46:39;;;;;;;11.77;5.40;;;-2.20;98.00;;;;;;5022115;28;20022;-67
2023/02/26 01:49:10;;;;;;;7.22;4.10;;;-2.20;98.00;;;;;;5031321;28;20022;-66
2023/02/26 01:51:41;;;;;;;12.75;4.30;;;-2.10;97.80;;;;;;5017905;28;20040;-66
2023/02/26 01:54:09;;;;;;;8.23;4.93;;;-2.10;98.00;;;;;;5020258;28;20086;-67
2023/02/26 01:56:38;;;;;;;9.88;5.30;;;-2.10;98.00;;;;;;5019803;28;20025;-66
2023/02/26 01:59:05;;;;;;;8.30;5.05;;;-2.20;98.00;;;;;;5031635;28;20434;-66
2023/02/26 02:01:38;;;;;;;10.13;4.72;;;-2.20;97.30;;;;;;5034650;28;20025;-66
2023/02/26 02:04:09;;;;;;;9.60;5.38;;;-2.30;97.40;;;;;;5022508;28;20042;-66
2023/02/26 02:06:38;;;;;;;8.88;4.57;;;-2.30;98.00;;;;;;5040624;28;20044;-65
2023/02/26 02:09:06;;;;;;;10.32;4.75;;;-2.40;98.00;;;;;;5028759;28;20411;-65
2023/02/26 02:11:35;;;;;;;11.23;4.63;;;-2.40;97.70;;;;;;5030934;28;20025;-64
2023/02/26 02:14:31;;;;;;;8.25;4.85;;;-2.40;98.00;;;;;;5036362;28;20025;-65
2023/02/26 02:16:57;;;;;;;13.27;5.38;;;-2.40;98.00;;;;;;5035463;28;20341;-65
2023/02/26 02:19:37;;;;;;;10.35;4.78;;;-2.50;98.00;;;;;;5037136;28;20112;-66
2023/02/26 02:22:09;;;;;;;9.38;5.10;;;-2.60;98.00;;;;;;5025359;28;20034;-66
2023/02/26 02:25:03;;;;;;;10.13;4.85;;;-2.60;98.00;;;;;;5035990;28;20061;-66
2023/02/26 02:27:43;;;;;;;9.57;5.18;;;-2.60;98.00;;;;;;5035074;28;20466;-65
2023/02/26 02:30:35;;;;;;;7.93;4.45;;;-2.60;98.00;;;;;;5026965;28;20112;-67
2023/02/26 02:33:05;;;;;;;9.68;4.63;;;-2.50;98.00;;;;;;5038533;28;20322;-66
2023/02/26 02:35:33;;;;;;;8.85;4.28;;;-2.50;98.00;;;;;;5037658;28;20032;-67
2023/02/26 02:38:19;;;;;;;9.32;4.60;;;-2.50;98.00;;;;;;5038271;28;20321;-67
2023/02/26 02:40:50;;;;;;;9.68;4.72;;;-2.50;98.00;;;;;;5023734;28;20061;-66
2023/02/26 02:43:21;;;;;;;10.80;4.90;;;-2.50;98.00;;;;;;5036141;28;20029;-66
2023/02/26 02:46:06;;;;;;;7.43;4.40;;;-2.50;98.00;;;;;;5037485;28;20130;-67
2023/02/26 02:48:36;;;;;;;8.80;4.43;;;-2.50;98.00;;;;;;5038935;28;20032;-66
2023/02/26 02:51:23;;;;;;;9.55;5.22;;;-2.40;98.00;;;;;;5039372;28;20028;-67
2023/02/26 02:53:58;;;;;;;12.43;4.93;;;-2.40;98.00;;;;;;5036090;28;20048;-66
2023/02/26 02:56:42;;;;;;;11.30;4.32;;;-2.40;98.00;;;;;;5028869;28;20033;-66
2023/02/26 02:59:31;;;;;;;9.10;4.68;;;-2.40;98.00;;;;;;5035852;28;20057;-66
2023/02/26 03:02:08;;;;;;;8.43;4.85;;;-2.40;98.00;;;;;;5035211;28;20036;-66
2023/02/26 03:04:34;;;;;;;8.38;4.55;;;-2.40;98.00;;;;;;5047137;28;20025;-67
2023/02/26 03:07:00;;;;;;;8.75;4.93;;;-2.50;98.00;;;;;;5044761;28;20025;-66
2023/02/26 03:09:26;;;;;;;8.82;4.40;;;-2.40;98.00;;;;;;5042710;28;20021;-66
2023/02/26 03:11:51;;;;;;;12.65;4.72;;;-2.40;98.00;;;;;;5038281;28;20021;-66
2023/02/26 03:14:17;;;;;;;12.52;5.10;;;-2.60;98.00;;;;;;5045589;28;20045;-66
2023/02/26 03:17:04;;;;;;;11.73;4.97;;;-2.60;98.00;;;;;;5052159;28;20028;-65
2023/02/26 03:19:47;;;;;;;11.18;4.50;;;-2.50;98.00;;;;;;5039859;28;20033;-67
2023/02/26 03:22:25;;;;;;;11.60;5.13;;;-2.50;98.00;;;;;;5034204;28;20028;-66
2023/02/26 03:25:01;;;;;;;11.70;4.80;;;-2.50;98.00;;;;;;5031854;28;20025;-66
2023/02/26 03:27:49;;;;;;;13.68;6.63;;;-2.60;98.00;;;;;;5042338;28;20033;-66
2023/02/26 03:30:29;;;;;;;12.05;5.20;;;-2.70;98.00;;;;;;5030757;28;20057;-66
2023/02/26 03:33:24;;;;;;;11.27;5.35;;;-2.70;98.00;;;;;;5035747;28;20109;-67
2023/02/26 03:36:10;;;;;;;10.75;4.55;;;-2.70;98.00;;;;;;5025766;28;20446;-66
2023/02/26 03:38:48;;;;;;;9.68;4.32;;;-2.70;98.00;;;;;;5029448;28;20029;-66
2023/02/26 03:41:21;;;;;;;9.70;5.47;;;-2.70;98.00;;;;;;5044846;28;20033;-66
2023/02/26 03:43:54;;;;;;;13.40;5.88;;;-2.70;98.00;;;;;;5040319;28;20025;-66
2023/02/26 03:46:45;;;;;;;14.40;5.53;;;-2.80;98.00;;;;;;5040000;28;20186;-66
2023/02/26 03:49:20;;;;;;;11.32;4.88;;;-2.80;98.00;;;;;;5030540;28;20029;-67
2023/02/26 03:51:46;;;;;;;13.10;5.82;;;-2.80;98.00;;;;;;5034345;28;20036;-66
2023/02/26 03:54:26;;;;;;;13.60;5.78;;;-2.90;98.00;;;;;;5049703;28;20025;-66
2023/02/26 03:56:52;;;;;;;11.82;5.50;;;-3.00;98.00;;;;;;5025481;28;20025;-66
2023/02/26 03:59:19;;;;;;;9.05;4.63;;;-3.00;98.00;;;;;;5032974;28;20058;-66
2023/02/26 04:01:57;;;;;;;11.00;5.25;;;-3.00;98.00;;;;;;5027152;28;20105;-66
2023/02/26 04:04:29;;;;;;;15.90;5.45;;;-3.00;98.00;;;;;;5046505;28;20026;-66
2023/02/26 04:06:56;;;;;;;10.10;5.10;;;-3.10;98.00;;;;;;5027284;28;20139;-65
2023/02/26 04:09:22;;;;;;;10.40;5.18;;;-3.20;98.00;;;;;;5034207;28;20441;-66
2023/02/26 04:11:50;;;;;;;10.98;5.13;;;-3.30;98.00;;;;;;5035520;28;20028;-65
2023/02/26 04:14:15;;;;;;;12.27;5.25;;;-3.50;98.00;;;;;;5049435;28;20041;-66
2023/02/26 04:16:43;;;;;;;10.48;4.90;;;-3.60;98.00;;;;;;5043970;28;20330;-66
2023/02/26 04:19:09;;;;;;;12.23;5.85;;;-3.70;97.80;;;;;;5048138;28;20029;-66
2023/02/26 04:21:34;;;;;;;10.57;4.97;;;-3.80;96.70;;;;;;5040345;28;20083;-65
2023/02/26 04:24:03;;;;;;;10.07;5.18;;;-3.90;96.90;;;;;;5032875;28;20103;-66
2023/02/26 04:26:29;;;;;;;11.68;5.75;;;-4.00;96.50;;;;;;5028259;28;20304;-66
2023/02/26 04:28:54;;;;;;;9.77;4.65;;;-4.10;96.50;;;;;;5033589;28;20089;-66
2023/02/26 04:31:20;;;;;;;13.43;5.43;;;-4.20;95.40;;;;;;5032918;28;20037;-66
2023/02/26 04:33:45;;;;;;;14.43;6.30;;;-4.20;94.70;;;;;;5031653;28;20331;-65
2023/02/26 04:36:11;;;;;;;11.60;6.22;;;-4.20;94.20;;;;;;5030080;28;20040;-66
2023/02/26 04:38:39;;;;;;;12.45;6.43;;;-4.20;94.20;;;;;;5039550;28;20028;-66
2023/02/26 04:41:06;;;;;;;9.85;5.55;;;-4.20;93.20;;;;;;5029103;28;20033;-66
2023/02/26 04:43:31;;;;;;;9.80;5.65;;;-4.20;93.20;;;;;;5023013;28;20032;-65
2023/02/26 04:45:57;;;;;;;11.80;5.55;;;-4.20;93.50;;;;;;5024235;28;20025;-65
2023/02/26 04:48:23;;;;;;;12.80;7.10;;;-4.30;93.80;;;;;;5030058;28;20025;-66
2023/02/26 04:50:51;;;;;;;25.35;10.70;;;-4.40;93.40;;;;;;5037709;28;20053;-66
2023/02/26 04:53:17;;;;;;;101.45;39.17;;;-4.30;94.40;;;;;;5024636;28;20037;-66
2023/02/26 04:55:43;;;;;;;20.52;9.55;;;-4.40;94.70;;;;;;5037231;28;20111;-66
2023/02/26 04:58:09;;;;;;;25.42;11.75;;;-4.50;94.70;;;;;;5021819;28;20060;-66
2023/02/26 05:00:35;;;;;;;14.93;5.93;;;-4.50;95.10;;;;;;5029455;28;20116;-65
2023/02/26 05:03:08;;;;;;;14.95;5.43;;;-4.40;95.60;;;;;;5031581;28;20104;-65
2023/02/26 05:05:34;;;;;;;13.30;5.70;;;-4.30;96.60;;;;;;5038777;28;20418;-65
2023/02/26 05:08:00;;;;;;;7.88;5.13;;;-4.30;97.50;;;;;;5035865;28;20044;-65
2023/02/26 05:10:26;;;;;;;13.35;6.53;;;-4.40;96.80;;;;;;5036100;28;21011;-65
2023/02/26 05:12:51;;;;;;;11.65;5.32;;;-4.40;97.20;;;;;;5036724;28;20025;-67
2023/02/26 05:15:17;;;;;;;13.50;6.43;;;-4.30;97.50;;;;;;5038079;28;20033;-67
2023/02/26 05:17:43;;;;;;;12.43;6.43;;;-4.40;97.50;;;;;;5031506;28;20033;-67
2023/02/26 05:20:09;;;;;;;13.82;6.22;;;-4.40;96.40;;;;;;5050176;28;20044;-67
2023/02/26 05:22:36;;;;;;;12.63;6.30;;;-4.50;96.00;;;;;;5037064;28;20033;-66
2023/02/26 05:25:03;;;;;;;13.10;6.50;;;-4.50;95.10;;;;;;5036465;28;20033;-66
2023/02/26 05:27:29;;;;;;;10.60;6.00;;;-4.50;95.10;;;;;;5033582;28;20105;-66
2023/02/26 05:29:55;;;;;;;12.98;6.32;;;-4.50;94.60;;;;;;5032805;28;20160;-66
2023/02/26 05:32:20;;;;;;;10.77;5.90;;;-4.50;93.30;;;;;;5030318;28;20029;-65
2023/02/26 05:34:46;;;;;;;13.05;6.40;;;-4.40;93.40;;;;;;5034767;28;20028;-66
2023/02/26 05:37:11;;;;;;;14.60;6.53;;;-4.40;95.20;;;;;;5040723;28;20111;-66
2023/02/26 05:39:37;;;;;;;12.93;5.97;;;-4.40;94.50;;;;;;5029076;28;20064;-66
2023/02/26 05:42:03;;;;;;;12.10;6.63;;;-4.40;93.80;;;;;;5029013;28;20033;-66
2023/02/26 05:44:28;;;;;;;10.63;5.97;;;-4.30;93.20;;;;;;5031473;28;20037;-66
2023/02/26 05:46:54;;;;;;;14.60;6.97;;;-4.30;92.80;;;;;;5040083;28;20461;-65
2023/02/26 05:49:20;;;;;;;12.70;7.45;;;-4.20;92.60;;;;;;5037215;28;20026;-66
2023/02/26 05:51:48;;;;;;;11.52;6.00;;;-4.10;93.40;;;;;;5040605;28;20441;-66
2023/02/26 05:54:14;;;;;;;13.60;6.25;;;-4.10;94.30;;;;;;5043397;28;20414;-66
2023/02/26 05:56:39;;;;;;;15.30;5.80;;;-4.10;94.90;;;;;;5042391;28;20040;-67
2023/02/26 05:59:05;;;;;;;9.35;5.10;;;-4.10;94.60;;;;;;5032570;28;20057;-66
2023/02/26 06:01:31;;;;;;;12.27;5.20;;;-3.90;94.20;;;;;;5030871;28;20029;-66
2023/02/26 06:03:56;;;;;;;10.57;5.53;;;-3.80;94.90;;;;;;5034687;28;20037;-66
2023/02/26 06:06:22;;;;;;;20.45;6.47;;;-3.80;95.40;;;;;;5033568;28;20362;-66
2023/02/26 06:08:47;;;;;;;14.25;5.78;;;-3.70;95.20;;;;;;5036920;28;20064;-66
2023/02/26 06:11:13;;;;;;;21.70;7.10;;;-3.60;96.70;;;;;;5044676;28;20033;-65
2023/02/26 06:13:39;;;;;;;11.20;5.97;;;-3.60;97.00;;;;;;5030712;28;20376;-66
2023/02/26 06:16:05;;;;;;;11.25;6.40;;;-3.50;97.30;;;;;;5030746;28;20029;-65
2023/02/26 06:18:32;;;;;;;12.15;6.93;;;-3.50;98.00;;;;;;5023525;28;20087;-66
2023/02/26 06:20:58;;;;;;;19.05;8.70;;;-3.50;97.70;;;;;;5030999;28;20033;-65
2023/02/26 06:23:24;;;;;;;18.67;8.65;;;-3.50;96.80;;;;;;5031475;28;20029;-64
2023/02/26 06:25:53;;;;;;;11.18;6.25;;;-3.60;96.90;;;;;;5036339;28;20053;-65
2023/02/26 06:28:19;;;;;;;10.20;5.53;;;-3.50;95.90;;;;;;5039333;28;20338;-64
2023/02/26 06:30:45;;;;;;;9.48;5.18;;;-3.50;96.10;;;;;;5035170;28;20041;-65
2023/02/26 06:33:10;;;;;;;11.65;5.80;;;-3.50;96.00;;;;;;5038842;28;20043;-66
2023/02/26 06:35:36;;;;;;;11.48;5.93;;;-3.40;96.80;;;;;;5036970;28;20103;-66
2023/02/26 06:38:02;;;;;;;13.13;6.47;;;-3.40;97.60;;;;;;5042912;28;20088;-66
2023/02/26 06:40:29;;;;;;;14.10;6.65;;;-3.40;98.00;;;;;;5036277;28;20379;-65
2023/02/26 06:42:55;;;;;;;11.82;6.60;;;-3.40;98.00;;;;;;5037927;28;20070;-65
2023/02/26 06:45:21;;;;;;;11.98;5.97;;;-3.40;98.00;;;;;;5034200;28;20029;-64
2023/02/26 06:47:47;;;;;;;12.45;6.03;;;-3.30;98.00;;;;;;5033685;28;20040;-64
2023/02/26 06:50:13;;;;;;;12.18;6.47;;;-3.40;98.00;;;;;;5035375;28;20106;-65
2023/02/26 06:52:39;;;;;;;12.82;6.47;;;-3.40;98.00;;;;;;5039987;28;20025;-65
2023/02/26 06:55:05;;;;;;;13.85;6.32;;;-3.40;98.00;;;;;;5037207;28;20034;-65
2023/02/26 06:57:30;;;;;;;17.30;8.50;;;-3.40;98.00;;;;;;5033933;28;20073;-64
2023/02/26 06:59:56;;;;;;;13.05;7.28;;;-3.40;98.00;;;;;;5033328;28;20427;-64
2023/02/26 07:02:22;;;;;;;13.80;7.93;;;-3.30;98.00;;;;;;5037834;28;20497;-64
2023/02/26 07:04:48;;;;;;;15.60;6.45;;;-3.20;97.80;;;;;;5027348;28;20486;-67
2023/02/26 07:07:14;;;;;;;12.38;6.88;;;-3.20;98.00;;;;;;5042482;28;20026;-66
2023/02/26 07:09:40;;;;;;;12.00;5.70;;;-3.10;98.00;;;;;;5033725;28;20087;-65
2023/02/26 07:12:06;;;;;;;11.73;5.68;;;-3.00;98.00;;;;;;5034519;28;20041;-65
2023/02/26 07:14:33;;;;;;;12.27;6.72;;;-3.00;98.00;;;;;;5032506;28;20516;-65
2023/02/26 07:16:59;;;;;;;15.88;7.00;;;-3.00;98.00;;;;;;5016528;28;20145;-64
2023/02/26 07:19:24;;;;;;;13.15;6.38;;;-2.90;98.00;;;;;;5030482;28;20021;-66
2023/02/26 07:21:50;;;;;;;12.45;6.72;;;-2.70;98.00;;;;;;5028621;28;20029;-65
2023/02/26 07:24:16;;;;;;;14.02;6.32;;;-2.60;98.00;;;;;;5020440;28;20036;-65
2023/02/26 07:26:44;;;;;;;11.05;6.90;;;-2.40;98.00;;;;;;5019627;28;20583;-64
2023/02/26 07:29:09;;;;;;;10.65;5.05;;;-2.30;98.00;;;;;;5040022;28;20043;-66
2023/02/26 07:31:35;;;;;;;11.18;5.72;;;-2.20;98.00;;;;;;5027459;28;20025;-65
2023/02/26 07:34:02;;;;;;;13.02;5.32;;;-1.90;98.00;;;;;;5039551;28;20369;-65
2023/02/26 07:36:27;;;;;;;13.75;5.65;;;-1.60;98.00;;;;;;5020669;28;20026;-65
2023/02/26 07:38:56;;;;;;;12.75;4.93;;;-1.40;98.00;;;;;;5025024;28;20027;-66
2023/02/26 07:41:22;;;;;;;10.38;5.53;;;-1.10;98.00;;;;;;5037127;28;20068;-65
2023/02/26 07:43:47;;;;;;;13.07;4.75;;;-1.40;98.00;;;;;;5035890;28;20065;-65
2023/02/26 07:46:13;;;;;;;13.05;6.85;;;-1.80;98.00;;;;;;5033527;28;20037;-66
2023/02/26 07:48:40;;;;;;;14.80;6.20;;;-2.40;98.00;;;;;;5031302;28;20466;-65
2023/02/26 07:51:06;;;;;;;17.70;8.48;;;-2.60;98.00;;;;;;5031898;28;20029;-64
2023/02/26 07:53:33;;;;;;;9.77;6.05;;;-2.70;98.00;;;;;;5029659;28;20033;-64
2023/02/26 07:55:59;;;;;;;13.80;7.18;;;-2.80;98.00;;;;;;5037154;28;20087;-63
2023/02/26 07:58:25;;;;;;;13.23;6.95;;;-2.60;98.00;;;;;;5030542;28;20053;-64
2023/02/26 08:00:51;;;;;;;14.30;7.28;;;-2.60;98.00;;;;;;5038480;28;20060;-64
2023/02/26 08:03:19;;;;;;;13.30;7.10;;;-2.70;98.00;;;;;;5034911;28;20021;-64
2023/02/26 08:05:44;;;;;;;13.48;5.90;;;-2.80;98.00;;;;;;5022011;28;20029;-63
2023/02/26 08:08:10;;;;;;;10.95;6.75;;;-2.60;98.00;;;;;;5029659;28;20022;-65
2023/02/26 08:10:38;;;;;;;11.15;5.80;;;-2.80;98.00;;;;;;5022083;28;20117;-65
2023/02/26 08:13:04;;;;;;;9.27;5.25;;;-2.70;98.00;;;;;;5029210;28;20389;-63
2023/02/26 08:15:29;;;;;;;15.98;6.75;;;-2.70;98.00;;;;;;5018433;28;20315;-65
2023/02/26 08:17:55;;;;;;;13.32;6.72;;;-2.80;98.00;;;;;;5028220;28;20022;-66
2023/02/26 08:20:22;;;;;;;14.95;7.03;;;-2.70;98.00;;;;;;5033828;28;20060;-64
2023/02/26 08:22:49;;;;;;;12.20;5.80;;;-2.70;98.00;;;;;;5028994;28;20449;-65
2023/02/26 08:25:14;;;;;;;14.20;6.88;;;-2.70;98.00;;;;;;5033278;28;20091;-65
2023/02/26 08:27:43;;;;;;;13.68;5.70;;;-2.70;98.00;;;;;;5021587;28;20034;-65
2023/02/26 08:30:10;;;;;;;12.73;6.63;;;-2.80;98.00;;;;;;5019269;28;20458;-64
2023/02/26 08:32:57;;;;;;;13.52;6.45;;;-2.80;98.00;;;;;;5022494;28;20064;-64
2023/02/26 08:35:24;;;;;;;14.15;5.85;;;-2.80;98.00;;;;;;5019177;28;20029;-66
2023/02/26 08:37:49;;;;;;;9.88;5.40;;;-2.70;98.00;;;;;;5024310;28;20022;-66
2023/02/26 08:40:18;;;;;;;14.13;5.55;;;-2.40;98.00;;;;;;5016114;28;20029;-65
2023/02/26 08:42:48;;;;;;;13.63;5.75;;;-2.00;98.00;;;;;;5031266;28;20135;-64
2023/02/26 08:45:19;;;;;;;11.18;4.97;;;-1.90;98.00;;;;;;5024326;28;20021;-64
2023/02/26 08:47:45;;;;;;;10.15;4.50;;;-1.90;98.00;;;;;;5024654;28;20018;-64
2023/02/26 08:50:11;;;;;;;8.57;4.38;;;-1.80;98.00;;;;;;5031997;28;20075;-64
2023/02/26 08:52:37;;;;;;;7.35;4.20;;;-1.90;98.00;;;;;;5028551;28;20022;-64
2023/02/26 08:55:03;;;;;;;9.52;4.45;;;-2.00;98.00;;;;;;5029642;28;20133;-64
2023/02/26 08:57:29;;;;;;;11.63;4.50;;;-1.80;98.00;;;;;;5017948;28;20345;-64
2023/02/26 08:59:59;;;;;;;10.93;4.78;;;-1.60;98.00;;;;;;5037913;28;20059;-63
2023/02/26 09:02:25;;;;;;;14.07;4.93;;;-1.60;98.00;;;;;;5023911;28;20030;-66
2023/02/26 09:04:50;;;;;;;43.65;16.40;;;-1.70;98.00;;;;;;5033015;28;20107;-65
2023/02/26 09:07:16;;;;;;;32.60;15.75;;;-2.00;98.00;;;;;;5025532;28;20312;-64
2023/02/26 09:09:41;;;;;;;12.15;7.40;;;-2.00;98.00;;;;;;5027456;28;20030;-64
2023/02/26 09:12:07;;;;;;;13.88;6.95;;;-1.90;98.00;;;;;;5032593;28;20445;-65
2023/02/26 09:14:33;;;;;;;9.02;4.57;;;-1.80;98.00;;;;;;5035462;28;20066;-65
2023/02/26 09:16:58;;;;;;;10.25;5.05;;;-2.00;98.00;;;;;;5029854;28;20104;-65
2023/02/26 09:19:24;;;;;;;9.55;4.95;;;-2.00;98.00;;;;;;5033118;28;20064;-65
2023/02/26 09:21:52;;;;;;;9.02;5.15;;;-2.20;98.00;;;;;;5027385;28;20021;-65
2023/02/26 09:24:18;;;;;;;10.05;4.93;;;-2.00;98.00;;;;;;5034193;28;20108;-65
2023/02/26 09:26:43;;;;;;;9.02;4.20;;;-1.70;98.00;;;;;;5025134;28;20522;-64
2023/02/26 09:29:10;;;;;;;15.63;6.40;;;-1.50;98.00;;;;;;5029336;28;20040;-64
2023/02/26 09:31:35;;;;;;;9.15;4.05;;;-1.40;98.00;;;;;;5019708;28;20410;-65
2023/02/26 09:34:01;;;;;;;11.52;4.40;;;-1.30;98.00;;;;;;5030675;28;20036;-64
2023/02/26 09:36:27;;;;;;;8.57;3.90;;;-0.60;97.60;;;;;;5034573;28;20456;-64
2023/02/26 09:38:52;;;;;;;14.45;7.45;;;0.40;94.30;;;;;;5032006;28;20025;-64
2023/02/26 09:41:25;;;;;;;8.30;3.83;;;0.70;91.60;;;;;;5033194;28;20318;-64
2023/02/26 09:44:24;;;;;;;9.93;3.67;;;0.60;90.90;;;;;;5023569;28;20041;-64
2023/02/26 09:46:52;;;;;;;7.40;3.10;;;0.20;90.00;;;;;;5025030;28;20029;-64
2023/02/26 09:49:22;;;;;;;9.70;4.25;;;-0.20;90.60;;;;;;5022582;28;20623;-64
2023/02/26 09:51:53;;;;;;;9.95;5.47;;;-0.60;91.80;;;;;;5031105;28;20529;-64
2023/02/26 09:54:23;;;;;;;6.93;3.80;;;-0.60;93.80;;;;;;5033795;28;20041;-64
2023/02/26 09:56:52;;;;;;;7.60;3.85;;;-0.50;93.40;;;;;;5037644;28;20094;-64
2023/02/26 09:59:18;;;;;;;113.68;51.10;;;-0.50;91.80;;;;;;5031387;28;20342;-64
2023/02/26 10:02:00;;;;;;;11.57;6.93;;;-0.20;92.50;;;;;;5030014;28;20083;-64
2023/02/26 10:04:47;;;;;;;9.10;2.90;;;0.20;91.50;;;;;;5033148;28;20026;-64
2023/02/26 10:07:35;;;;;;;9.07;4.20;;;0.20;88.80;;;;;;5026462;28;20030;-64
2023/02/26 10:10:15;;;;;;;6.28;3.97;;;0.10;89.70;;;;;;5038840;28;20078;-64
2023/02/26 10:12:43;;;;;;;7.40;4.30;;;0.10;90.00;;;;;;5030263;28;20026;-64
2023/02/26 10:15:33;;;;;;;12.10;5.72;;;0.00;90.30;;;;;;5037527;28;20029;-64
2023/02/26 10:18:18;;;;;;;8.50;3.90;;;0.00;90.60;;;;;;5029749;28;20116;-64
2023/02/26 10:20:43;;;;;;;;;;;-0.20;90.60;;;;;;5028264;28;20025;-64
2023/02/26 10:23:20;;;;;;;8.95;4.43;;;0.40;90.00;;;;;;5035811;28;19917;-65
2023/02/26 10:26:12;;;;;;;6.50;2.80;;;1.20;88.70;;;;;;5030372;28;20017;-65
2023/02/26 10:28:52;;;;;;;8.38;3.30;;;1.90;86.70;;;;;;5034798;28;20039;-65
2023/02/26 10:31:28;;;;;;;7.63;4.22;;;2.70;84.30;;;;;;5018697;28;20119;-65
2023/02/26 10:34:25;;;;;;;5.90;3.00;;;2.20;83.40;;;;;;5026073;28;20024;-65
2023/02/26 10:37:02;;;;;;;6.65;3.20;;;1.30;86.00;;;;;;5033247;28;20315;-64
2023/02/26 10:39:52;;;;;;;7.47;3.30;;;0.60;87.30;;;;;;5032698;28;20374;-65
2023/02/26 10:42:30;;;;;;;7.28;3.85;;;0.60;89.20;;;;;;5039179;28;20079;-63
2023/02/26 10:45:05;;;;;;;8.55;3.72;;;0.80;91.40;;;;;;5031509;28;20029;-64
2023/02/26 10:47:49;;;;;;;7.85;3.42;;;0.80;89.60;;;;;;5036337;28;20415;-65
2023/02/26 10:50:18;;;;;;;7.13;3.45;;;0.80;89.30;;;;;;5032870;28;20034;-64
2023/02/26 10:52:45;;;;;;;7.82;3.70;;;0.80;90.20;;;;;;5025982;28;20385;-63
2023/02/26 10:55:45;;;;;;;15.80;7.85;;;0.40;88.70;;;;;;5032227;28;20480;-64
2023/02/26 10:58:23;;;;;;;6.65;4.15;;;0.00;91.30;;;;;;5032969;28;20056;-63
2023/02/26 11:00:53;;;;;;;9.07;3.60;;;0.30;91.70;;;;;;5029141;28;20048;-64
2023/02/26 11:03:39;;;;;;;7.13;3.80;;;0.70;90.10;;;;;;5025589;28;20037;-64
2023/02/26 11:06:06;;;;;;;7.68;4.05;;;0.90;89.90;;;;;;5036610;28;20037;-67
2023/02/26 11:08:53;;;;;;;6.63;3.78;;;0.60;90.30;;;;;;5041747;28;20025;-64
2023/02/26 11:11:40;;;;;;;5.22;3.38;;;-0.20;90.90;;;;;;5030579;28;20029;-65
2023/02/26 11:14:19;;;;;;;5.78;3.63;;;-0.60;93.00;;;;;;5030150;28;20474;-64
2023/02/26 11:16:56;;;;;;;6.45;4.03;;;-0.70;94.00;;;;;;5031419;28;20036;-65
2023/02/26 11:19:29;;;;;;;8.90;4.80;;;-0.80;94.30;;;;;;5026864;28;20452;-64
2023/02/26 11:22:03;;;;;;;9.75;4.95;;;-0.90;95.40;;;;;;5023755;28;20037;-65
2023/02/26 11:24:39;;;;;;;8.25;4.15;;;-0.90;95.90;;;;;;5029388;28;20037;-65
2023/02/26 11:27:11;;;;;;;9.38;5.75;;;-0.90;95.10;;;;;;5031480;28;20032;-65
2023/02/26 11:29:40;;;;;;;6.88;4.78;;;-0.80;95.70;;;;;;5032012;28;20418;-65
2023/02/26 11:32:23;;;;;;;9.20;4.13;;;-0.70;95.70;;;;;;5028830;28;20029;-65
2023/02/26 11:34:50;;;;;;;7.45;4.10;;;-0.60;95.30;;;;;;5029105;28;20026;-65
2023/02/26 11:37:23;;;;;;;7.43;3.83;;;-0.40;95.50;;;;;;5031005;28;20029;-65
2023/02/26 11:39:57;;;;;;;8.73;4.45;;;-0.30;94.40;;;;;;5025252;28;20033;-64
2023/02/26 11:42:26;;;;;;;9.43;5.90;;;-0.40;94.20;;;;;;5016718;28;20038;-64
2023/02/26 11:44:56;;;;;;;7.90;3.75;;;-0.30;94.80;;;;;;5016663;28;20423;-64
2023/02/26 11:47:28;;;;;;;5.75;3.20;;;0.00;95.50;;;;;;5038410;28;20441;-64
2023/02/26 11:49:59;;;;;;;7.65;3.65;;;0.10;94.00;;;;;;5020923;28;20032;-64
2023/02/26 11:52:38;;;;;;;7.10;4.00;;;0.10;93.60;;;;;;5022749;28;20029;-65
2023/02/26 11:55:21;;;;;;;9.60;4.88;;;0.10;93.50;;;;;;5025693;28;20037;-65
2023/02/26 11:57:53;;;;;;;6.85;3.90;;;-0.20;94.20;;;;;;5028379;28;20053;-65
2023/02/26 12:00:34;;;;;;;8.52;4.20;;;-0.40;94.80;;;;;;5038549;28;20329;-65
2023/02/26 12:03:07;;;;;;;9.30;4.63;;;-0.50;95.30;;;;;;5036785;28;20052;-64
2023/02/26 12:05:34;;;;;;;8.30;3.95;;;-0.50;95.40;;;;;;5031542;28;20018;-64
2023/02/26 12:08:02;;;;;;;6.80;3.15;;;-0.30;96.50;;;;;;5017397;28;20323;-65
2023/02/26 12:10:42;;;;;;;7.50;4.20;;;-0.20;95.90;;;;;;5026258;28;20169;-65
2023/02/26 12:13:26;;;;;;;9.65;4.20;;;-0.20;95.10;;;;;;5029788;28;20029;-64
2023/02/26 12:15:51;;;;;;;7.80;3.20;;;0.00;95.20;;;;;;5037600;28;20028;-64
2023/02/26 12:19:00;;;;;;;6.97;3.67;;;0.00;93.40;;;;;;5021744;28;20671;-64
2023/02/26 12:21:47;;;;;;;7.00;3.78;;;-0.20;94.10;;;;;;5016725;28;20044;-64
2023/02/26 12:24:34;;;;;;;8.07;3.80;;;-0.20;94.80;;;;;;5036196;28;20407;-64
2023/02/26 12:27:44;;;;;;;5.10;3.15;;;-0.40;95.60;;;;;;5035314;28;20069;-64
2023/02/26 12:30:21;;;;;;;5.88;3.35;;;-0.50;96.10;;;;;;5035560;28;20025;-65
2023/02/26 12:33:01;;;;;;;6.53;3.63;;;-0.40;96.20;;;;;;5018197;28;20073;-64
2023/02/26 12:35:36;;;;;;;7.55;4.32;;;-0.50;95.70;;;;;;5036249;28;20045;-64
2023/02/26 12:38:14;;;;;;;8.35;4.13;;;-0.60;97.00;;;;;;5034949;28;20369;-64
2023/02/26 12:41:05;;;;;;;8.60;5.68;;;-0.60;97.70;;;;;;5036442;28;20430;-63
2023/02/26 12:43:48;;;;;;;8.27;4.55;;;-0.60;97.70;;;;;;5016890;28;20065;-64
2023/02/26 12:46:43;;;;;;;9.15;5.05;;;-0.70;98.00;;;;;;5036159;28;20025;-64
2023/02/26 12:49:33;;;;;;;8.52;4.10;;;-0.70;98.00;;;;;;5018228;28;20034;-64
2023/02/26 12:52:18;;;;;;;5.97;3.88;;;-0.60;98.00;;;;;;5022393;28;20323;-64
2023/02/26 12:55:07;;;;;;;7.72;4.47;;;-0.60;98.00;;;;;;5026025;28;20022;-65
2023/02/26 12:58:10;;;;;;;7.03;4.45;;;-0.50;98.00;;;;;;5031387;28;20037;-65
2023/02/26 13:00:41;;;;;;;7.07;5.05;;;-0.50;98.00;;;;;;5049256;28;20496;-65
2023/02/26 13:03:07;;;;;;;6.53;4.05;;;-0.40;98.00;;;;;;5035690;28;20079;-65
2023/02/26 13:06:09;;;;;;;7.43;3.80;;;0.20;98.00;;;;;;5035231;28;20053;-64
2023/02/26 13:08:48;;;;;;;6.65;3.70;;;0.90;98.00;;;;;;5006220;28;20073;-64